sensor_id;sensor_type;location;lat;lon;timestamp;P1;durP1;ratioP1;P2;durP2;ratioP2
9485;SDS011;4781;48.776;9.200;2023-04-06T00:00:14;15.97;;;8.40;;
9485;SDS011;4781;48.776;9.200;2023-04-06T00:02:43;13.85;;;7.92;;
9485;SDS011;4781;48.776;9.200;2023-04-06T00:05:11;13.13;;;8.18;;
9485;SDS011;4781;48.776;9.200;2023-04-06T00:07:40;16.95;;;8.33;;
9485;SDS011;4781;48.776;9.200;2023-04-06T00:10:09;13.45;;;7.90;;
9485;SDS011;4781;48.776;9.200;2023-04-06T00:12:37;11.43;;;7.28;;
9485;SDS011;4781;48.776;9.200;2023-04-06T00:15:06;16.07;;;7.83;;
9485;SDS011;4781;48.776;9.200;2023-04-06T00:17:35;11.88;;;7.25;;
9485;SDS011;4781;48.776;9.200;2023-04-06T00:20:03;13.53;;;7.40;;
9485;SDS011;4781;48.776;9.200;2023-04-06T00:22:33;12.13;;;7.58;;
9485;SDS011;4781;48.776;9.200;2023-04-06T00:25:01;12.80;;;7.65;;
9485;SDS011;4781;48.776;9.200;2023-04-06T00:27:30;12.70;;;7.90;;
9485;SDS011;4781;48.776;9.200;2023-04-06T00:29:59;15.98;;;7.83;;
9485;SDS011;4781;48.776;9.200;2023-04-06T00:32:27;13.78;;;8.38;;
9485;SDS011;4781;48.776;9.200;2023-04-06T00:34:55;13.05;;;7.80;;
9485;SDS011;4781;48.776;9.200;2023-04-06T00:37:24;13.30;;;7.65;;
9485;SDS011;4781;48.776;9.200;2023-04-06T00:39:53;14.07;;;8.03;;
9485;SDS011;4781;48.776;9.200;2023-04-06T00:42:21;14.78;;;7.83;;
9485;SDS011;4781;48.776;9.200;2023-04-06T00:44:59;14.75;;;8.10;;
9485;SDS011;4781;48.776;9.200;2023-04-06T00:47:25;12.40;;;8.25;;
9485;SDS011;4781;48.776;9.200;2023-04-06T00:49:54;13.90;;;8.23;;
9485;SDS011;4781;48.776;9.200;2023-04-06T00:52:22;16.23;;;8.30;;
9485;SDS011;4781;48.776;9.200;2023-04-06T00:54:51;14.80;;;8.33;;
9485;SDS011;4781;48.776;9.200;2023-04-06T00:57:19;13.62;;;8.03;;
9485;SDS011;4781;48.776;9.200;2023-04-06T00:59:48;14.25;;;7.80;;
9485;SDS011;4781;48.776;9.200;2023-04-06T01:02:16;11.60;;;7.78;;
9485;SDS011;4781;48.776;9.200;2023-04-06T01:04:44;13.83;;;7.95;;
9485;SDS011;4781;48.776;9.200;2023-04-06T01:07:13;12.25;;;7.67;;
9485;SDS011;4781;48.776;9.200;2023-04-06T01:09:41;16.12;;;8.25;;
9485;SDS011;4781;48.776;9.200;2023-04-06T01:12:10;12.60;;;7.60;;
9485;SDS011;4781;48.776;9.200;2023-04-06T01:14:38;13.15;;;7.67;;
9485;SDS011;4781;48.776;9.200;2023-04-06T01:17:06;12.13;;;7.50;;
9485;SDS011;4781;48.776;9.200;2023-04-06T01:19:36;10.70;;;7.42;;
9485;SDS011;4781;48.776;9.200;2023-04-06T01:22:06;15.05;;;7.33;;
9485;SDS011;4781;48.776;9.200;2023-04-06T01:24:34;13.62;;;7.50;;
9485;SDS011;4781;48.776;9.200;2023-04-06T01:27:03;14.43;;;7.40;;
9485;SDS011;4781;48.776;9.200;2023-04-06T01:29:31;12.18;;;8.10;;
9485;SDS011;4781;48.776;9.200;2023-04-06T01:32:00;14.75;;;7.08;;
9485;SDS011;4781;48.776;9.200;2023-04-06T01:34:28;13.85;;;7.75;;
9485;SDS011;4781;48.776;9.200;2023-04-06T01:36:57;11.05;;;7.33;;
9485;SDS011;4781;48.776;9.200;2023-04-06T01:39:25;12.98;;;7.58;;
9485;SDS011;4781;48.776;9.200;2023-04-06T01:41:54;13.35;;;7.47;;
9485;SDS011;4781;48.776;9.200;2023-04-06T01:44:22;13.28;;;8.03;;
9485;SDS011;4781;48.776;9.200;2023-04-06T01:46:51;12.78;;;8.13;;
9485;SDS011;4781;48.776;9.200;2023-04-06T01:49:19;13.50;;;8.00;;
9485;SDS011;4781;48.776;9.200;2023-04-06T01:51:47;17.15;;;8.43;;
9485;SDS011;4781;48.776;9.200;2023-04-06T01:54:16;14.03;;;8.10;;
9485;SDS011;4781;48.776;9.200;2023-04-06T01:56:44;16.02;;;8.40;;
9485;SDS011;4781;48.776;9.200;2023-04-06T01:59:13;10.05;;;7.03;;
9485;SDS011;4781;48.776;9.200;2023-04-06T02:01:41;12.88;;;7.85;;
9485;SDS011;4781;48.776;9.200;2023-04-06T02:04:09;14.35;;;8.10;;
9485;SDS011;4781;48.776;9.200;2023-04-06T02:06:39;13.35;;;8.95;;
9485;SDS011;4781;48.776;9.200;2023-04-06T02:09:07;17.37;;;8.78;;
9485;SDS011;4781;48.776;9.200;2023-04-06T02:11:36;15.08;;;8.68;;
9485;SDS011;4781;48.776;9.200;2023-04-06T02:14:04;11.63;;;7.42;;
9485;SDS011;4781;48.776;9.200;2023-04-06T02:16:32;13.60;;;8.28;;
9485;SDS011;4781;48.776;9.200;2023-04-06T02:19:01;20.82;;;8.38;;
9485;SDS011;4781;48.776;9.200;2023-04-06T02:21:29;14.13;;;7.55;;
9485;SDS011;4781;48.776;9.200;2023-04-06T02:23:58;12.65;;;7.12;;
9485;SDS011;4781;48.776;9.200;2023-04-06T02:26:26;12.43;;;8.18;;
9485;SDS011;4781;48.776;9.200;2023-04-06T02:28:55;11.85;;;7.33;;
9485;SDS011;4781;48.776;9.200;2023-04-06T02:31:23;16.37;;;8.50;;
9485;SDS011;4781;48.776;9.200;2023-04-06T02:33:52;12.80;;;8.33;;
9485;SDS011;4781;48.776;9.200;2023-04-06T02:36:20;12.70;;;7.67;;
9485;SDS011;4781;48.776;9.200;2023-04-06T02:38:48;15.65;;;7.87;;
9485;SDS011;4781;48.776;9.200;2023-04-06T02:41:17;12.85;;;7.87;;
9485;SDS011;4781;48.776;9.200;2023-04-06T02:43:46;13.72;;;8.03;;
9485;SDS011;4781;48.776;9.200;2023-04-06T02:46:14;12.55;;;8.45;;
9485;SDS011;4781;48.776;9.200;2023-04-06T02:48:42;12.82;;;8.05;;
9485;SDS011;4781;48.776;9.200;2023-04-06T02:51:11;11.85;;;7.83;;
9485;SDS011;4781;48.776;9.200;2023-04-06T02:53:39;12.25;;;8.25;;
9485;SDS011;4781;48.776;9.200;2023-04-06T02:56:08;15.13;;;7.60;;
9485;SDS011;4781;48.776;9.200;2023-04-06T02:58:36;12.75;;;7.70;;
9485;SDS011;4781;48.776;9.200;2023-04-06T03:01:04;10.70;;;6.97;;
9485;SDS011;4781;48.776;9.200;2023-04-06T03:03:33;13.32;;;7.53;;
9485;SDS011;4781;48.776;9.200;2023-04-06T03:06:01;12.98;;;7.50;;
9485;SDS011;4781;48.776;9.200;2023-04-06T03:08:30;10.58;;;7.53;;
9485;SDS011;4781;48.776;9.200;2023-04-06T03:10:58;11.30;;;7.33;;
9485;SDS011;4781;48.776;9.200;2023-04-06T03:13:27;16.20;;;7.78;;
9485;SDS011;4781;48.776;9.200;2023-04-06T03:15:56;14.50;;;7.75;;
9485;SDS011;4781;48.776;9.200;2023-04-06T03:18:25;12.60;;;7.70;;
9485;SDS011;4781;48.776;9.200;2023-04-06T03:20:53;11.60;;;7.47;;
9485;SDS011;4781;48.776;9.200;2023-04-06T03:23:21;13.05;;;8.08;;
9485;SDS011;4781;48.776;9.200;2023-04-06T03:25:50;13.30;;;8.25;;
9485;SDS011;4781;48.776;9.200;2023-04-06T03:28:18;12.40;;;7.58;;
9485;SDS011;4781;48.776;9.200;2023-04-06T03:30:48;12.63;;;7.80;;
9485;SDS011;4781;48.776;9.200;2023-04-06T03:33:16;14.87;;;8.63;;
9485;SDS011;4781;48.776;9.200;2023-04-06T03:35:46;12.58;;;7.83;;
9485;SDS011;4781;48.776;9.200;2023-04-06T03:38:14;10.65;;;7.20;;
9485;SDS011;4781;48.776;9.200;2023-04-06T03:40:42;13.20;;;8.25;;
9485;SDS011;4781;48.776;9.200;2023-04-06T03:43:11;11.83;;;7.12;;
9485;SDS011;4781;48.776;9.200;2023-04-06T03:45:39;16.02;;;7.97;;
9485;SDS011;4781;48.776;9.200;2023-04-06T03:48:07;18.40;;;7.95;;
9485;SDS011;4781;48.776;9.200;2023-04-06T03:50:36;12.95;;;7.87;;
9485;SDS011;4781;48.776;9.200;2023-04-06T03:53:04;12.07;;;7.30;;
9485;SDS011;4781;48.776;9.200;2023-04-06T03:55:33;12.18;;;7.78;;
9485;SDS011;4781;48.776;9.200;2023-04-06T03:58:01;11.97;;;8.00;;
9485;SDS011;4781;48.776;9.200;2023-04-06T04:00:29;11.97;;;8.08;;
9485;SDS011;4781;48.776;9.200;2023-04-06T04:02:58;13.93;;;8.20;;
9485;SDS011;4781;48.776;9.200;2023-04-06T04:05:28;14.87;;;7.78;;
9485;SDS011;4781;48.776;9.200;2023-04-06T04:07:56;14.50;;;8.28;;
9485;SDS011;4781;48.776;9.200;2023-04-06T04:10:25;16.87;;;8.83;;
9485;SDS011;4781;48.776;9.200;2023-04-06T04:12:53;17.98;;;8.63;;
9485;SDS011;4781;48.776;9.200;2023-04-06T04:15:21;12.00;;;7.87;;
9485;SDS011;4781;48.776;9.200;2023-04-06T04:17:50;12.37;;;8.15;;
9485;SDS011;4781;48.776;9.200;2023-04-06T04:20:18;14.10;;;8.45;;
9485;SDS011;4781;48.776;9.200;2023-04-06T04:22:47;16.32;;;9.18;;
9485;SDS011;4781;48.776;9.200;2023-04-06T04:25:15;13.18;;;8.05;;
9485;SDS011;4781;48.776;9.200;2023-04-06T04:27:44;13.25;;;8.38;;
9485;SDS011;4781;48.776;9.200;2023-04-06T04:30:12;12.80;;;8.27;;
9485;SDS011;4781;48.776;9.200;2023-04-06T04:32:41;13.08;;;8.55;;
9485;SDS011;4781;48.776;9.200;2023-04-06T04:35:09;14.13;;;8.60;;
9485;SDS011;4781;48.776;9.200;2023-04-06T04:37:40;13.48;;;8.35;;
9485;SDS011;4781;48.776;9.200;2023-04-06T04:40:08;11.97;;;7.70;;
9485;SDS011;4781;48.776;9.200;2023-04-06T04:42:38;13.25;;;8.00;;
9485;SDS011;4781;48.776;9.200;2023-04-06T04:45:06;14.33;;;8.60;;
9485;SDS011;4781;48.776;9.200;2023-04-06T04:47:35;12.60;;;7.58;;
9485;SDS011;4781;48.776;9.200;2023-04-06T04:50:04;13.58;;;8.80;;
9485;SDS011;4781;48.776;9.200;2023-04-06T04:52:33;11.18;;;8.30;;
9485;SDS011;4781;48.776;9.200;2023-04-06T04:55:02;14.70;;;8.23;;
9485;SDS011;4781;48.776;9.200;2023-04-06T04:57:30;13.58;;;8.20;;
9485;SDS011;4781;48.776;9.200;2023-04-06T04:59:59;13.78;;;8.03;;
9485;SDS011;4781;48.776;9.200;2023-04-06T05:02:28;14.68;;;8.43;;
9485;SDS011;4781;48.776;9.200;2023-04-06T05:04:56;14.93;;;8.70;;
9485;SDS011;4781;48.776;9.200;2023-04-06T05:07:25;13.10;;;8.33;;
9485;SDS011;4781;48.776;9.200;2023-04-06T05:09:53;13.62;;;7.80;;
9485;SDS011;4781;48.776;9.200;2023-04-06T05:12:22;13.95;;;8.55;;
9485;SDS011;4781;48.776;9.200;2023-04-06T05:14:50;13.20;;;7.83;;
9485;SDS011;4781;48.776;9.200;2023-04-06T05:17:19;12.65;;;7.90;;
9485;SDS011;4781;48.776;9.200;2023-04-06T05:19:48;12.88;;;8.15;;
9485;SDS011;4781;48.776;9.200;2023-04-06T05:22:17;13.88;;;8.95;;
9485;SDS011;4781;48.776;9.200;2023-04-06T05:24:45;13.53;;;8.15;;
9485;SDS011;4781;48.776;9.200;2023-04-06T05:27:14;14.05;;;8.30;;
9485;SDS011;4781;48.776;9.200;2023-04-06T05:29:42;13.45;;;8.08;;
9485;SDS011;4781;48.776;9.200;2023-04-06T05:32:11;13.25;;;8.73;;
9485;SDS011;4781;48.776;9.200;2023-04-06T05:34:39;12.73;;;7.85;;
9485;SDS011;4781;48.776;9.200;2023-04-06T05:37:08;12.90;;;7.87;;
9485;SDS011;4781;48.776;9.200;2023-04-06T05:39:36;13.80;;;8.53;;
9485;SDS011;4781;48.776;9.200;2023-04-06T05:42:05;11.90;;;7.97;;
9485;SDS011;4781;48.776;9.200;2023-04-06T05:44:33;13.32;;;8.45;;
9485;SDS011;4781;48.776;9.200;2023-04-06T05:47:04;12.98;;;8.18;;
9485;SDS011;4781;48.776;9.200;2023-04-06T05:49:33;12.93;;;7.97;;
9485;SDS011;4781;48.776;9.200;2023-04-06T05:52:01;15.13;;;8.23;;
9485;SDS011;4781;48.776;9.200;2023-04-06T05:54:30;14.00;;;8.33;;
9485;SDS011;4781;48.776;9.200;2023-04-06T05:56:58;13.22;;;8.00;;
9485;SDS011;4781;48.776;9.200;2023-04-06T05:59:31;11.95;;;8.23;;
9485;SDS011;4781;48.776;9.200;2023-04-06T06:01:59;14.03;;;9.03;;
9485;SDS011;4781;48.776;9.200;2023-04-06T06:04:28;14.63;;;9.55;;
9485;SDS011;4781;48.776;9.200;2023-04-06T06:06:57;13.50;;;8.98;;
9485;SDS011;4781;48.776;9.200;2023-04-06T06:09:26;12.85;;;8.35;;
9485;SDS011;4781;48.776;9.200;2023-04-06T06:11:54;12.55;;;8.03;;
9485;SDS011;4781;48.776;9.200;2023-04-06T06:14:23;11.22;;;8.00;;
9485;SDS011;4781;48.776;9.200;2023-04-06T06:16:53;15.20;;;8.63;;
9485;SDS011;4781;48.776;9.200;2023-04-06T06:19:21;17.85;;;8.98;;
9485;SDS011;4781;48.776;9.200;2023-04-06T06:21:50;16.40;;;8.90;;
9485;SDS011;4781;48.776;9.200;2023-04-06T06:24:18;16.17;;;8.63;;
9485;SDS011;4781;48.776;9.200;2023-04-06T06:26:47;14.78;;;8.83;;
9485;SDS011;4781;48.776;9.200;2023-04-06T06:29:15;15.58;;;9.30;;
9485;SDS011;4781;48.776;9.200;2023-04-06T06:31:44;13.00;;;9.15;;
9485;SDS011;4781;48.776;9.200;2023-04-06T06:34:12;18.32;;;9.23;;
9485;SDS011;4781;48.776;9.200;2023-04-06T06:36:40;24.30;;;11.28;;
9485;SDS011;4781;48.776;9.200;2023-04-06T06:39:09;17.30;;;11.12;;
9485;SDS011;4781;48.776;9.200;2023-04-06T06:41:37;18.27;;;10.50;;
9485;SDS011;4781;48.776;9.200;2023-04-06T06:44:06;16.65;;;10.05;;
9485;SDS011;4781;48.776;9.200;2023-04-06T06:46:34;16.00;;;10.20;;
9485;SDS011;4781;48.776;9.200;2023-04-06T06:49:03;19.27;;;9.93;;
9485;SDS011;4781;48.776;9.200;2023-04-06T06:51:31;17.32;;;10.78;;
9485;SDS011;4781;48.776;9.200;2023-04-06T06:54:00;15.60;;;10.80;;
9485;SDS011;4781;48.776;9.200;2023-04-06T06:56:28;14.90;;;10.25;;
9485;SDS011;4781;48.776;9.200;2023-04-06T06:58:57;17.48;;;10.95;;
9485;SDS011;4781;48.776;9.200;2023-04-06T07:01:25;17.02;;;10.78;;
9485;SDS011;4781;48.776;9.200;2023-04-06T07:03:53;15.68;;;10.15;;
9485;SDS011;4781;48.776;9.200;2023-04-06T07:06:22;18.60;;;10.80;;
9485;SDS011;4781;48.776;9.200;2023-04-06T07:08:50;15.50;;;10.10;;
9485;SDS011;4781;48.776;9.200;2023-04-06T07:11:19;17.82;;;10.70;;
9485;SDS011;4781;48.776;9.200;2023-04-06T07:13:47;17.57;;;10.23;;
9485;SDS011;4781;48.776;9.200;2023-04-06T07:16:16;14.60;;;9.55;;
9485;SDS011;4781;48.776;9.200;2023-04-06T07:18:44;16.48;;;9.53;;
9485;SDS011;4781;48.776;9.200;2023-04-06T07:21:13;20.97;;;10.75;;
9485;SDS011;4781;48.776;9.200;2023-04-06T07:23:41;16.57;;;10.60;;
9485;SDS011;4781;48.776;9.200;2023-04-06T07:26:10;17.15;;;10.55;;
9485;SDS011;4781;48.776;9.200;2023-04-06T07:28:38;13.40;;;9.53;;
9485;SDS011;4781;48.776;9.200;2023-04-06T07:31:07;15.23;;;10.13;;
9485;SDS011;4781;48.776;9.200;2023-04-06T07:33:35;16.57;;;10.58;;
9485;SDS011;4781;48.776;9.200;2023-04-06T07:36:04;15.65;;;10.48;;
9485;SDS011;4781;48.776;9.200;2023-04-06T07:38:33;16.48;;;10.55;;
9485;SDS011;4781;48.776;9.200;2023-04-06T07:41:01;18.62;;;10.40;;
9485;SDS011;4781;48.776;9.200;2023-04-06T07:43:29;14.80;;;10.35;;
9485;SDS011;4781;48.776;9.200;2023-04-06T07:45:58;16.45;;;10.10;;
9485;SDS011;4781;48.776;9.200;2023-04-06T07:48:26;15.05;;;10.48;;
9485;SDS011;4781;48.776;9.200;2023-04-06T07:51:02;14.78;;;10.43;;
9485;SDS011;4781;48.776;9.200;2023-04-06T07:53:52;18.60;;;11.12;;
9485;SDS011;4781;48.776;9.200;2023-04-06T07:56:20;18.45;;;11.22;;
9485;SDS011;4781;48.776;9.200;2023-04-06T07:58:50;15.90;;;10.63;;
9485;SDS011;4781;48.776;9.200;2023-04-06T08:01:20;19.02;;;10.48;;
9485;SDS011;4781;48.776;9.200;2023-04-06T08:06:37;20.23;;;10.75;;
9485;SDS011;4781;48.776;9.200;2023-04-06T08:09:07;17.67;;;10.45;;
9485;SDS011;4781;48.776;9.200;2023-04-06T08:11:35;16.30;;;10.45;;
9485;SDS011;4781;48.776;9.200;2023-04-06T08:14:03;14.00;;;10.20;;
9485;SDS011;4781;48.776;9.200;2023-04-06T08:16:32;15.15;;;11.15;;
9485;SDS011;4781;48.776;9.200;2023-04-06T08:19:00;16.77;;;11.28;;
9485;SDS011;4781;48.776;9.200;2023-04-06T08:21:30;19.07;;;10.23;;
9485;SDS011;4781;48.776;9.200;2023-04-06T08:23:58;16.82;;;11.53;;
9485;SDS011;4781;48.776;9.200;2023-04-06T08:26:27;15.53;;;10.85;;
9485;SDS011;4781;48.776;9.200;2023-04-06T08:28:55;20.02;;;10.75;;
9485;SDS011;4781;48.776;9.200;2023-04-06T08:31:24;16.15;;;10.72;;
9485;SDS011;4781;48.776;9.200;2023-04-06T08:33:53;18.32;;;11.15;;
9485;SDS011;4781;48.776;9.200;2023-04-06T08:36:21;17.57;;;10.80;;
9485;SDS011;4781;48.776;9.200;2023-04-06T08:38:50;14.90;;;10.32;;
9485;SDS011;4781;48.776;9.200;2023-04-06T08:41:19;17.05;;;10.05;;
9485;SDS011;4781;48.776;9.200;2023-04-06T08:44:09;15.50;;;10.48;;
9485;SDS011;4781;48.776;9.200;2023-04-06T08:46:39;19.35;;;11.85;;
9485;SDS011;4781;48.776;9.200;2023-04-06T08:49:07;20.57;;;10.43;;
9485;SDS011;4781;48.776;9.200;2023-04-06T08:51:36;16.30;;;10.85;;
9485;SDS011;4781;48.776;9.200;2023-04-06T08:54:05;18.35;;;10.80;;
9485;SDS011;4781;48.776;9.200;2023-04-06T08:56:36;13.95;;;9.65;;
9485;SDS011;4781;48.776;9.200;2023-04-06T08:59:06;15.05;;;10.15;;
9485;SDS011;4781;48.776;9.200;2023-04-06T09:01:37;14.20;;;9.70;;
9485;SDS011;4781;48.776;9.200;2023-04-06T09:04:12;17.70;;;9.23;;
9485;SDS011;4781;48.776;9.200;2023-04-06T09:06:40;13.58;;;8.33;;
9485;SDS011;4781;48.776;9.200;2023-04-06T09:09:10;10.78;;;7.92;;
9485;SDS011;4781;48.776;9.200;2023-04-06T09:11:42;11.90;;;8.13;;
9485;SDS011;4781;48.776;9.200;2023-04-06T09:14:16;13.13;;;7.70;;
9485;SDS011;4781;48.776;9.200;2023-04-06T09:16:46;13.70;;;9.60;;
9485;SDS011;4781;48.776;9.200;2023-04-06T09:19:15;18.50;;;9.28;;
9485;SDS011;4781;48.776;9.200;2023-04-06T09:21:43;11.85;;;8.23;;
9485;SDS011;4781;48.776;9.200;2023-04-06T09:24:12;14.20;;;9.55;;
9485;SDS011;4781;48.776;9.200;2023-04-06T09:26:44;14.95;;;9.73;;
9485;SDS011;4781;48.776;9.200;2023-04-06T09:29:24;14.07;;;9.65;;
9485;SDS011;4781;48.776;9.200;2023-04-06T09:32:12;13.25;;;9.55;;
9485;SDS011;4781;48.776;9.200;2023-04-06T09:34:42;14.60;;;9.00;;
9485;SDS011;4781;48.776;9.200;2023-04-06T09:37:15;15.05;;;8.75;;
9485;SDS011;4781;48.776;9.200;2023-04-06T09:39:46;12.70;;;8.58;;
9485;SDS011;4781;48.776;9.200;2023-04-06T09:45:04;12.03;;;8.00;;
9485;SDS011;4781;48.776;9.200;2023-04-06T09:47:44;13.38;;;8.70;;
9485;SDS011;4781;48.776;9.200;2023-04-06T09:50:13;13.60;;;8.48;;
9485;SDS011;4781;48.776;9.200;2023-04-06T09:52:43;11.48;;;8.53;;
9485;SDS011;4781;48.776;9.200;2023-04-06T09:55:19;11.43;;;8.30;;
9485;SDS011;4781;48.776;9.200;2023-04-06T09:58:00;11.90;;;7.95;;
9485;SDS011;4781;48.776;9.200;2023-04-06T10:00:47;12.73;;;8.05;;
9485;SDS011;4781;48.776;9.200;2023-04-06T10:03:26;12.23;;;8.30;;
9485;SDS011;4781;48.776;9.200;2023-04-06T10:06:05;12.28;;;7.50;;
9485;SDS011;4781;48.776;9.200;2023-04-06T10:08:40;11.50;;;8.18;;
9485;SDS011;4781;48.776;9.200;2023-04-06T10:11:10;10.98;;;7.85;;
9485;SDS011;4781;48.776;9.200;2023-04-06T10:13:38;12.25;;;8.33;;
9485;SDS011;4781;48.776;9.200;2023-04-06T10:16:07;11.43;;;7.70;;
9485;SDS011;4781;48.776;9.200;2023-04-06T10:18:37;10.88;;;7.28;;
9485;SDS011;4781;48.776;9.200;2023-04-06T10:21:11;12.03;;;7.60;;
9485;SDS011;4781;48.776;9.200;2023-04-06T10:23:51;11.57;;;7.17;;
9485;SDS011;4781;48.776;9.200;2023-04-06T10:26:27;10.60;;;6.20;;
9485;SDS011;4781;48.776;9.200;2023-04-06T10:29:01;10.28;;;6.53;;
9485;SDS011;4781;48.776;9.200;2023-04-06T10:31:28;10.72;;;7.10;;
9485;SDS011;4781;48.776;9.200;2023-04-06T10:34:00;12.33;;;6.97;;
9485;SDS011;4781;48.776;9.200;2023-04-06T10:36:33;10.30;;;7.15;;
9485;SDS011;4781;48.776;9.200;2023-04-06T10:39:03;18.25;;;6.90;;
9485;SDS011;4781;48.776;9.200;2023-04-06T10:41:33;10.98;;;6.90;;
9485;SDS011;4781;48.776;9.200;2023-04-06T10:44:24;11.05;;;7.37;;
9485;SDS011;4781;48.776;9.200;2023-04-06T10:46:52;9.60;;;7.12;;
9485;SDS011;4781;48.776;9.200;2023-04-06T10:49:26;11.20;;;7.50;;
9485;SDS011;4781;48.776;9.200;2023-04-06T10:51:55;10.00;;;6.97;;
9485;SDS011;4781;48.776;9.200;2023-04-06T10:54:25;10.82;;;6.97;;
9485;SDS011;4781;48.776;9.200;2023-04-06T10:56:55;11.22;;;6.75;;
9485;SDS011;4781;48.776;9.200;2023-04-06T10:59:24;11.28;;;7.28;;
9485;SDS011;4781;48.776;9.200;2023-04-06T11:01:52;10.18;;;6.42;;
9485;SDS011;4781;48.776;9.200;2023-04-06T11:04:21;10.72;;;6.42;;
9485;SDS011;4781;48.776;9.200;2023-04-06T11:06:50;12.25;;;6.67;;
9485;SDS011;4781;48.776;9.200;2023-04-06T11:09:26;9.90;;;6.60;;
9485;SDS011;4781;48.776;9.200;2023-04-06T11:11:57;10.93;;;7.05;;
9485;SDS011;4781;48.776;9.200;2023-04-06T11:14:26;11.20;;;6.37;;
9485;SDS011;4781;48.776;9.200;2023-04-06T11:16:55;10.08;;;7.03;;
9485;SDS011;4781;48.776;9.200;2023-04-06T11:19:23;9.98;;;6.55;;
9485;SDS011;4781;48.776;9.200;2023-04-06T11:21:52;9.30;;;6.17;;
9485;SDS011;4781;48.776;9.200;2023-04-06T11:24:23;8.95;;;6.20;;
9485;SDS011;4781;48.776;9.200;2023-04-06T11:26:58;9.65;;;6.15;;
9485;SDS011;4781;48.776;9.200;2023-04-06T11:29:30;9.28;;;6.20;;
9485;SDS011;4781;48.776;9.200;2023-04-06T11:32:02;10.20;;;5.87;;
9485;SDS011;4781;48.776;9.200;2023-04-06T11:34:33;9.80;;;6.65;;
9485;SDS011;4781;48.776;9.200;2023-04-06T11:37:07;9.88;;;6.10;;
9485;SDS011;4781;48.776;9.200;2023-04-06T11:39:42;8.60;;;6.35;;
9485;SDS011;4781;48.776;9.200;2023-04-06T11:42:21;10.00;;;6.95;;
9485;SDS011;4781;48.776;9.200;2023-04-06T11:44:55;9.13;;;6.05;;
9485;SDS011;4781;48.776;9.200;2023-04-06T11:47:28;8.78;;;5.85;;
9485;SDS011;4781;48.776;9.200;2023-04-06T11:50:10;8.95;;;5.87;;
9485;SDS011;4781;48.776;9.200;2023-04-06T11:52:38;7.60;;;5.87;;
9485;SDS011;4781;48.776;9.200;2023-04-06T11:55:11;11.33;;;6.75;;
9485;SDS011;4781;48.776;9.200;2023-04-06T11:57:43;11.50;;;6.92;;
9485;SDS011;4781;48.776;9.200;2023-04-06T12:00:12;10.20;;;6.07;;
9485;SDS011;4781;48.776;9.200;2023-04-06T12:02:44;8.65;;;5.92;;
9485;SDS011;4781;48.776;9.200;2023-04-06T12:05:15;10.23;;;6.50;;
9485;SDS011;4781;48.776;9.200;2023-04-06T12:07:43;11.30;;;5.80;;
9485;SDS011;4781;48.776;9.200;2023-04-06T12:10:12;10.13;;;6.22;;
9485;SDS011;4781;48.776;9.200;2023-04-06T12:12:40;9.70;;;6.62;;
9485;SDS011;4781;48.776;9.200;2023-04-06T12:15:09;10.98;;;6.83;;
9485;SDS011;4781;48.776;9.200;2023-04-06T12:17:37;9.93;;;6.45;;
9485;SDS011;4781;48.776;9.200;2023-04-06T12:20:06;9.65;;;5.70;;
9485;SDS011;4781;48.776;9.200;2023-04-06T12:22:35;9.15;;;5.67;;
9485;SDS011;4781;48.776;9.200;2023-04-06T12:25:03;8.33;;;6.45;;
9485;SDS011;4781;48.776;9.200;2023-04-06T12:27:34;9.35;;;6.25;;
9485;SDS011;4781;48.776;9.200;2023-04-06T12:30:02;10.03;;;6.10;;
9485;SDS011;4781;48.776;9.200;2023-04-06T12:32:31;8.55;;;5.92;;
9485;SDS011;4781;48.776;9.200;2023-04-06T12:34:59;9.33;;;6.50;;
9485;SDS011;4781;48.776;9.200;2023-04-06T12:37:28;9.85;;;6.53;;
9485;SDS011;4781;48.776;9.200;2023-04-06T12:39:56;8.73;;;5.67;;
9485;SDS011;4781;48.776;9.200;2023-04-06T12:42:26;8.43;;;5.55;;
9485;SDS011;4781;48.776;9.200;2023-04-06T12:44:54;8.88;;;5.83;;
9485;SDS011;4781;48.776;9.200;2023-04-06T12:47:22;9.98;;;5.20;;
9485;SDS011;4781;48.776;9.200;2023-04-06T12:49:53;7.55;;;5.45;;
9485;SDS011;4781;48.776;9.200;2023-04-06T12:52:23;9.78;;;5.70;;
9485;SDS011;4781;48.776;9.200;2023-04-06T12:54:52;8.00;;;5.85;;
9485;SDS011;4781;48.776;9.200;2023-04-06T12:57:20;9.45;;;5.67;;
9485;SDS011;4781;48.776;9.200;2023-04-06T12:59:49;8.43;;;6.00;;
9485;SDS011;4781;48.776;9.200;2023-04-06T13:02:17;8.93;;;5.53;;
9485;SDS011;4781;48.776;9.200;2023-04-06T13:04:48;7.40;;;5.28;;
9485;SDS011;4781;48.776;9.200;2023-04-06T13:07:17;10.08;;;5.97;;
9485;SDS011;4781;48.776;9.200;2023-04-06T13:09:45;7.45;;;5.28;;
9485;SDS011;4781;48.776;9.200;2023-04-06T13:12:15;10.85;;;5.40;;
9485;SDS011;4781;48.776;9.200;2023-04-06T13:14:44;10.18;;;5.70;;
9485;SDS011;4781;48.776;9.200;2023-04-06T13:17:14;8.78;;;5.97;;
9485;SDS011;4781;48.776;9.200;2023-04-06T13:19:43;9.53;;;5.70;;
9485;SDS011;4781;48.776;9.200;2023-04-06T13:22:11;9.18;;;5.60;;
9485;SDS011;4781;48.776;9.200;2023-04-06T13:24:41;10.30;;;5.17;;
9485;SDS011;4781;48.776;9.200;2023-04-06T13:27:09;10.80;;;6.03;;
9485;SDS011;4781;48.776;9.200;2023-04-06T13:29:38;9.83;;;5.30;;
9485;SDS011;4781;48.776;9.200;2023-04-06T13:32:06;8.85;;;5.53;;
9485;SDS011;4781;48.776;9.200;2023-04-06T13:34:36;9.28;;;5.97;;
9485;SDS011;4781;48.776;9.200;2023-04-06T13:37:04;10.08;;;5.72;;
9485;SDS011;4781;48.776;9.200;2023-04-06T13:39:32;7.22;;;5.15;;
9485;SDS011;4781;48.776;9.200;2023-04-06T13:42:01;8.70;;;5.17;;
9485;SDS011;4781;48.776;9.200;2023-04-06T13:44:29;10.23;;;5.70;;
9485;SDS011;4781;48.776;9.200;2023-04-06T13:46:58;8.28;;;5.65;;
9485;SDS011;4781;48.776;9.200;2023-04-06T13:49:26;8.33;;;5.75;;
9485;SDS011;4781;48.776;9.200;2023-04-06T13:51:56;9.33;;;5.90;;
9485;SDS011;4781;48.776;9.200;2023-04-06T13:54:25;10.18;;;5.55;;
9485;SDS011;4781;48.776;9.200;2023-04-06T13:56:54;10.08;;;5.78;;
9485;SDS011;4781;48.776;9.200;2023-04-06T13:59:22;8.35;;;5.47;;
9485;SDS011;4781;48.776;9.200;2023-04-06T14:01:51;8.90;;;6.10;;
9485;SDS011;4781;48.776;9.200;2023-04-06T14:04:19;8.60;;;5.72;;
9485;SDS011;4781;48.776;9.200;2023-04-06T14:06:48;8.45;;;5.35;;
9485;SDS011;4781;48.776;9.200;2023-04-06T14:09:16;9.45;;;5.80;;
9485;SDS011;4781;48.776;9.200;2023-04-06T14:11:44;9.43;;;5.33;;
9485;SDS011;4781;48.776;9.200;2023-04-06T14:14:13;8.43;;;6.28;;
9485;SDS011;4781;48.776;9.200;2023-04-06T14:16:41;9.95;;;5.60;;
9485;SDS011;4781;48.776;9.200;2023-04-06T14:19:13;8.38;;;5.33;;
9485;SDS011;4781;48.776;9.200;2023-04-06T14:21:47;8.20;;;5.67;;
9485;SDS011;4781;48.776;9.200;2023-04-06T14:24:17;11.60;;;5.70;;
9485;SDS011;4781;48.776;9.200;2023-04-06T14:26:46;11.22;;;5.25;;
9485;SDS011;4781;48.776;9.200;2023-04-06T14:29:14;9.63;;;5.62;;
9485;SDS011;4781;48.776;9.200;2023-04-06T14:31:44;11.03;;;5.90;;
9485;SDS011;4781;48.776;9.200;2023-04-06T14:34:14;9.20;;;5.35;;
9485;SDS011;4781;48.776;9.200;2023-04-06T14:36:43;9.00;;;5.60;;
9485;SDS011;4781;48.776;9.200;2023-04-06T14:39:12;8.80;;;5.53;;
9485;SDS011;4781;48.776;9.200;2023-04-06T14:41:40;8.83;;;5.75;;
9485;SDS011;4781;48.776;9.200;2023-04-06T14:44:08;9.48;;;5.62;;
9485;SDS011;4781;48.776;9.200;2023-04-06T14:46:40;8.83;;;5.78;;
9485;SDS011;4781;48.776;9.200;2023-04-06T14:49:07;8.45;;;5.83;;
9485;SDS011;4781;48.776;9.200;2023-04-06T14:51:36;9.13;;;5.97;;
9485;SDS011;4781;48.776;9.200;2023-04-06T14:54:04;8.40;;;5.62;;
9485;SDS011;4781;48.776;9.200;2023-04-06T14:56:33;9.23;;;6.08;;
9485;SDS011;4781;48.776;9.200;2023-04-06T14:59:03;12.75;;;6.72;;
9485;SDS011;4781;48.776;9.200;2023-04-06T15:01:34;9.83;;;5.90;;
9485;SDS011;4781;48.776;9.200;2023-04-06T15:04:04;9.98;;;5.25;;
9485;SDS011;4781;48.776;9.200;2023-04-06T15:06:32;10.85;;;6.03;;
9485;SDS011;4781;48.776;9.200;2023-04-06T15:09:01;9.23;;;5.78;;
9485;SDS011;4781;48.776;9.200;2023-04-06T15:11:29;8.95;;;5.55;;
9485;SDS011;4781;48.776;9.200;2023-04-06T15:13:58;8.53;;;6.30;;
9485;SDS011;4781;48.776;9.200;2023-04-06T15:16:27;12.45;;;6.45;;
9485;SDS011;4781;48.776;9.200;2023-04-06T15:18:59;9.18;;;5.97;;
9485;SDS011;4781;48.776;9.200;2023-04-06T15:21:28;8.38;;;5.83;;